sensor_id;sensor_type;location;lat;lon;timestamp;P1;P2;P0
78754;PMS5003;68073;54.176;-4.554;2023-04-08T00:00:56;8;7;
78754;PMS5003;68073;54.176;-4.554;2023-04-08T00:03:21;9;8;
78754;PMS5003;68073;54.176;-4.554;2023-04-08T00:05:47;8;6;
78754;PMS5003;68073;54.176;-4.554;2023-04-08T00:08:12;8;8;
78754;PMS5003;68073;54.176;-4.554;2023-04-08T00:10:38;11;9;
78754;PMS5003;68073;54.176;-4.554;2023-04-08T00:13:03;8;7;
78754;PMS5003;68073;54.176;-4.554;2023-04-08T00:15:28;8;8;
78754;PMS5003;68073;54.176;-4.554;2023-04-08T00:17:54;7;7;
78754;PMS5003;68073;54.176;-4.554;2023-04-08T00:20:19;7;7;
78754;PMS5003;68073;54.176;-4.554;2023-04-08T00:22:44;11;7;
78754;PMS5003;68073;54.176;-4.554;2023-04-08T00:25:09;6;6;
78754;PMS5003;68073;54.176;-4.554;2023-04-08T00:27:35;8;7;
78754;PMS5003;68073;54.176;-4.554;2023-04-08T00:30:00;6;6;
78754;PMS5003;68073;54.176;-4.554;2023-04-08T00:32:26;8;8;
78754;PMS5003;68073;54.176;-4.554;2023-04-08T00:34:51;6;6;
78754;PMS5003;68073;54.176;-4.554;2023-04-08T00:37:16;8;8;
78754;PMS5003;68073;54.176;-4.554;2023-04-08T00:39:41;9;8;
78754;PMS5003;68073;54.176;-4.554;2023-04-08T00:42:07;8;4;
78754;PMS5003;68073;54.176;-4.554;2023-04-08T00:44:32;8;8;
78754;PMS5003;68073;54.176;-4.554;2023-04-08T00:46:57;10;7;
78754;PMS5003;68073;54.176;-4.554;2023-04-08T00:49:22;8;7;
78754;PMS5003;68073;54.176;-4.554;2023-04-08T00:51:48;8;8;
78754;PMS5003;68073;54.176;-4.554;2023-04-08T00:54:13;12;8;
78754;PMS5003;68073;54.176;-4.554;2023-04-08T00:56:38;10;10;
78754;PMS5003;68073;54.176;-4.554;2023-04-08T00:59:04;6;6;
78754;PMS5003;68073;54.176;-4.554;2023-04-08T01:01:31;6;6;
78754;PMS5003;68073;54.176;-4.554;2023-04-08T01:03:55;7;7;
78754;PMS5003;68073;54.176;-4.554;2023-04-08T01:06:22;4;4;
78754;PMS5003;68073;54.176;-4.554;2023-04-08T01:08:45;7;6;
78754;PMS5003;68073;54.176;-4.554;2023-04-08T01:11:11;12;9;
78754;PMS5003;68073;54.176;-4.554;2023-04-08T01:13:36;6;6;
78754;PMS5003;68073;54.176;-4.554;2023-04-08T01:16:01;5;5;
78754;PMS5003;68073;54.176;-4.554;2023-04-08T01:18:26;3;3;
78754;PMS5003;68073;54.176;-4.554;2023-04-08T01:20:51;6;6;
78754;PMS5003;68073;54.176;-4.554;2023-04-08T01:23:19;3;3;
78754;PMS5003;68073;54.176;-4.554;2023-04-08T01:25:44;6;6;
78754;PMS5003;68073;54.176;-4.554;2023-04-08T01:28:09;6;5;
78754;PMS5003;68073;54.176;-4.554;2023-04-08T01:30:33;6;4;
78754;PMS5003;68073;54.176;-4.554;2023-04-08T01:32:58;6;6;
78754;PMS5003;68073;54.176;-4.554;2023-04-08T01:35:23;7;6;
78754;PMS5003;68073;54.176;-4.554;2023-04-08T01:37:49;7;6;
78754;PMS5003;68073;54.176;-4.554;2023-04-08T01:40:14;7;4;
78754;PMS5003;68073;54.176;-4.554;2023-04-08T01:42:39;3;3;
78754;PMS5003;68073;54.176;-4.554;2023-04-08T01:45:05;2;2;
78754;PMS5003;68073;54.176;-4.554;2023-04-08T01:47:30;4;4;
78754;PMS5003;68073;54.176;-4.554;2023-04-08T01:49:55;6;4;
78754;PMS5003;68073;54.176;-4.554;2023-04-08T01:52:21;3;3;
78754;PMS5003;68073;54.176;-4.554;2023-04-08T01:54:46;3;3;
78754;PMS5003;68073;54.176;-4.554;2023-04-08T01:57:13;2;2;
78754;PMS5003;68073;54.176;-4.554;2023-04-08T01:59:36;4;3;
78754;PMS5003;68073;54.176;-4.554;2023-04-08T02:02:02;3;2;
78754;PMS5003;68073;54.176;-4.554;2023-04-08T02:04:27;7;6;
78754;PMS5003;68073;54.176;-4.554;2023-04-08T02:06:52;3;3;
78754;PMS5003;68073;54.176;-4.554;2023-04-08T02:09:17;3;2;
78754;PMS5003;68073;54.176;-4.554;2023-04-08T02:11:43;2;2;
78754;PMS5003;68073;54.176;-4.554;2023-04-08T02:14:08;2;2;
78754;PMS5003;68073;54.176;-4.554;2023-04-08T02:16:35;2;2;
78754;PMS5003;68073;54.176;-4.554;2023-04-08T02:18:59;29;28;
78754;PMS5003;68073;54.176;-4.554;2023-04-08T02:21:26;2;2;
78754;PMS5003;68073;54.176;-4.554;2023-04-08T02:23:50;2;2;
78754;PMS5003;68073;54.176;-4.554;2023-04-08T02:26:15;11;7;
78754;PMS5003;68073;54.176;-4.554;2023-04-08T02:28:40;2;1;
78754;PMS5003;68073;54.176;-4.554;2023-04-08T02:31:06;1;1;
78754;PMS5003;68073;54.176;-4.554;2023-04-08T02:33:31;2;2;
78754;PMS5003;68073;54.176;-4.554;2023-04-08T02:35:56;1;1;
78754;PMS5003;68073;54.176;-4.554;2023-04-08T02:38:22;1;1;
78754;PMS5003;68073;54.176;-4.554;2023-04-08T02:40:48;1;1;
78754;PMS5003;68073;54.176;-4.554;2023-04-08T02:43:12;1;1;
78754;PMS5003;68073;54.176;-4.554;2023-04-08T02:45:39;2;1;
78754;PMS5003;68073;54.176;-4.554;2023-04-08T02:48:03;1;1;
78754;PMS5003;68073;54.176;-4.554;2023-04-08T02:50:28;1;1;
78754;PMS5003;68073;54.176;-4.554;2023-04-08T02:52:53;0;0;
78754;PMS5003;68073;54.176;-4.554;2023-04-08T02:55:19;2;2;
78754;PMS5003;68073;54.176;-4.554;2023-04-08T02:57:45;2;1;
78754;PMS5003;68073;54.176;-4.554;2023-04-08T03:00:10;1;1;
78754;PMS5003;68073;54.176;-4.554;2023-04-08T03:02:34;0;0;
78754;PMS5003;68073;54.176;-4.554;2023-04-08T03:05:00;2;2;
78754;PMS5003;68073;54.176;-4.554;2023-04-08T03:07:25;0;0;
78754;PMS5003;68073;54.176;-4.554;2023-04-08T03:09:50;3;3;
78754;PMS5003;68073;54.176;-4.554;2023-04-08T03:12:15;1;1;
78754;PMS5003;68073;54.176;-4.554;2023-04-08T03:14:41;1;0;
78754;PMS5003;68073;54.176;-4.554;2023-04-08T03:17:06;3;2;
78754;PMS5003;68073;54.176;-4.554;2023-04-08T03:19:31;2;1;
78754;PMS5003;68073;54.176;-4.554;2023-04-08T03:21:57;0;0;
78754;PMS5003;68073;54.176;-4.554;2023-04-08T03:24:22;1;0;
78754;PMS5003;68073;54.176;-4.554;2023-04-08T03:26:47;0;0;
78754;PMS5003;68073;54.176;-4.554;2023-04-08T03:29:13;0;0;
78754;PMS5003;68073;54.176;-4.554;2023-04-08T03:31:38;1;0;
78754;PMS5003;68073;54.176;-4.554;2023-04-08T03:34:03;1;1;
78754;PMS5003;68073;54.176;-4.554;2023-04-08T03:36:28;1;1;
78754;PMS5003;68073;54.176;-4.554;2023-04-08T03:38:54;3;2;
78754;PMS5003;68073;54.176;-4.554;2023-04-08T03:41:19;1;1;
78754;PMS5003;68073;54.176;-4.554;2023-04-08T03:43:44;2;2;
78754;PMS5003;68073;54.176;-4.554;2023-04-08T03:46:10;1;1;
78754;PMS5003;68073;54.176;-4.554;2023-04-08T03:48:35;2;1;
78754;PMS5003;68073;54.176;-4.554;2023-04-08T03:51:01;3;3;
78754;PMS5003;68073;54.176;-4.554;2023-04-08T03:53:31;1;1;
78754;PMS5003;68073;54.176;-4.554;2023-04-08T03:55:51;1;1;
78754;PMS5003;68073;54.176;-4.554;2023-04-08T03:58:17;1;1;
78754;PMS5003;68073;54.176;-4.554;2023-04-08T04:00:42;1;0;
78754;PMS5003;68073;54.176;-4.554;2023-04-08T04:03:07;2;1;
78754;PMS5003;68073;54.176;-4.554;2023-04-08T04:05:33;6;6;
78754;PMS5003;68073;54.176;-4.554;2023-04-08T04:07:58;1;1;
78754;PMS5003;68073;54.176;-4.554;2023-04-08T04:10:23;1;1;
78754;PMS5003;68073;54.176;-4.554;2023-04-08T04:12:48;0;0;
78754;PMS5003;68073;54.176;-4.554;2023-04-08T04:15:14;11;11;
78754;PMS5003;68073;54.176;-4.554;2023-04-08T04:17:39;5;5;
78754;PMS5003;68073;54.176;-4.554;2023-04-08T04:20:05;1;1;
78754;PMS5003;68073;54.176;-4.554;2023-04-08T04:22:30;1;1;
78754;PMS5003;68073;54.176;-4.554;2023-04-08T04:24:55;0;0;
78754;PMS5003;68073;54.176;-4.554;2023-04-08T04:27:20;1;1;
78754;PMS5003;68073;54.176;-4.554;2023-04-08T04:29:45;1;1;
78754;PMS5003;68073;54.176;-4.554;2023-04-08T04:32:11;5;5;
78754;PMS5003;68073;54.176;-4.554;2023-04-08T04:34:36;1;1;
78754;PMS5003;68073;54.176;-4.554;2023-04-08T04:37:01;1;1;
78754;PMS5003;68073;54.176;-4.554;2023-04-08T04:39:27;4;3;
78754;PMS5003;68073;54.176;-4.554;2023-04-08T04:41:52;4;3;
78754;PMS5003;68073;54.176;-4.554;2023-04-08T04:44:17;2;2;
78754;PMS5003;68073;54.176;-4.554;2023-04-08T04:46:42;8;8;
78754;PMS5003;68073;54.176;-4.554;2023-04-08T04:49:08;5;5;
78754;PMS5003;68073;54.176;-4.554;2023-04-08T04:51:33;1;1;
78754;PMS5003;68073;54.176;-4.554;2023-04-08T04:53:58;2;2;
78754;PMS5003;68073;54.176;-4.554;2023-04-08T04:56:24;3;3;
78754;PMS5003;68073;54.176;-4.554;2023-04-08T04:58:49;5;5;
78754;PMS5003;68073;54.176;-4.554;2023-04-08T05:01:14;3;3;
78754;PMS5003;68073;54.176;-4.554;2023-04-08T05:03:39;2;2;
78754;PMS5003;68073;54.176;-4.554;2023-04-08T05:06:05;33;32;
78754;PMS5003;68073;54.176;-4.554;2023-04-08T05:08:31;11;9;
78754;PMS5003;68073;54.176;-4.554;2023-04-08T05:10:56;4;4;
78754;PMS5003;68073;54.176;-4.554;2023-04-08T05:13:22;8;7;
78754;PMS5003;68073;54.176;-4.554;2023-04-08T05:15:47;6;6;
78754;PMS5003;68073;54.176;-4.554;2023-04-08T05:18:12;7;7;
78754;PMS5003;68073;54.176;-4.554;2023-04-08T05:20:37;11;8;
78754;PMS5003;68073;54.176;-4.554;2023-04-08T05:23:03;11;8;
78754;PMS5003;68073;54.176;-4.554;2023-04-08T05:25:28;43;41;
78754;PMS5003;68073;54.176;-4.554;2023-04-08T05:27:53;51;48;
78754;PMS5003;68073;54.176;-4.554;2023-04-08T05:30:19;36;36;
78754;PMS5003;68073;54.176;-4.554;2023-04-08T05:32:44;32;32;
78754;PMS5003;68073;54.176;-4.554;2023-04-08T05:35:10;31;30;
78754;PMS5003;68073;54.176;-4.554;2023-04-08T05:37:35;25;22;
78754;PMS5003;68073;54.176;-4.554;2023-04-08T05:40:00;24;24;
78754;PMS5003;68073;54.176;-4.554;2023-04-08T05:42:26;26;22;
78754;PMS5003;68073;54.176;-4.554;2023-04-08T05:44:51;19;18;
78754;PMS5003;68073;54.176;-4.554;2023-04-08T05:47:16;27;25;
78754;PMS5003;68073;54.176;-4.554;2023-04-08T05:49:42;33;27;
78754;PMS5003;68073;54.176;-4.554;2023-04-08T05:52:07;33;30;
78754;PMS5003;68073;54.176;-4.554;2023-04-08T05:54:33;30;29;
78754;PMS5003;68073;54.176;-4.554;2023-04-08T05:56:58;51;43;
78754;PMS5003;68073;54.176;-4.554;2023-04-08T05:59:23;28;28;
78754;PMS5003;68073;54.176;-4.554;2023-04-08T06:01:48;37;34;
78754;PMS5003;68073;54.176;-4.554;2023-04-08T06:04:14;42;34;
78754;PMS5003;68073;54.176;-4.554;2023-04-08T06:06:39;36;34;
78754;PMS5003;68073;54.176;-4.554;2023-04-08T06:09:04;37;32;
78754;PMS5003;68073;54.176;-4.554;2023-04-08T06:11:30;51;47;
78754;PMS5003;68073;54.176;-4.554;2023-04-08T06:13:55;44;40;
78754;PMS5003;68073;54.176;-4.554;2023-04-08T06:16:20;43;42;
78754;PMS5003;68073;54.176;-4.554;2023-04-08T06:18:46;52;50;
78754;PMS5003;68073;54.176;-4.554;2023-04-08T06:21:11;49;44;
78754;PMS5003;68073;54.176;-4.554;2023-04-08T06:23:37;42;40;
78754;PMS5003;68073;54.176;-4.554;2023-04-08T06:26:03;45;35;
78754;PMS5003;68073;54.176;-4.554;2023-04-08T06:28:29;37;36;
78754;PMS5003;68073;54.176;-4.554;2023-04-08T06:30:54;47;41;
78754;PMS5003;68073;54.176;-4.554;2023-04-08T06:33:19;43;40;
78754;PMS5003;68073;54.176;-4.554;2023-04-08T06:35:44;45;41;
78754;PMS5003;68073;54.176;-4.554;2023-04-08T06:38:10;53;49;
78754;PMS5003;68073;54.176;-4.554;2023-04-08T06:40:37;45;38;
78754;PMS5003;68073;54.176;-4.554;2023-04-08T06:43:01;44;40;
78754;PMS5003;68073;54.176;-4.554;2023-04-08T06:45:27;44;38;
78754;PMS5003;68073;54.176;-4.554;2023-04-08T06:47:53;46;39;
78754;PMS5003;68073;54.176;-4.554;2023-04-08T06:50:18;54;47;
78754;PMS5003;68073;54.176;-4.554;2023-04-08T06:52:43;46;42;
78754;PMS5003;68073;54.176;-4.554;2023-04-08T06:55:09;45;41;
78754;PMS5003;68073;54.176;-4.554;2023-04-08T06:57:34;48;45;
78754;PMS5003;68073;54.176;-4.554;2023-04-08T07:00:00;48;43;
78754;PMS5003;68073;54.176;-4.554;2023-04-08T07:02:25;44;42;
78754;PMS5003;68073;54.176;-4.554;2023-04-08T07:04:51;40;37;
78754;PMS5003;68073;54.176;-4.554;2023-04-08T07:07:16;139;123;
78754;PMS5003;68073;54.176;-4.554;2023-04-08T07:09:41;36;34;
78754;PMS5003;68073;54.176;-4.554;2023-04-08T07:12:07;43;38;
78754;PMS5003;68073;54.176;-4.554;2023-04-08T07:14:32;39;39;
78754;PMS5003;68073;54.176;-4.554;2023-04-08T07:16:57;39;35;
78754;PMS5003;68073;54.176;-4.554;2023-04-08T07:19:23;41;34;
78754;PMS5003;68073;54.176;-4.554;2023-04-08T07:21:48;39;35;
78754;PMS5003;68073;54.176;-4.554;2023-04-08T07:24:13;42;40;
78754;PMS5003;68073;54.176;-4.554;2023-04-08T07:26:38;35;33;
78754;PMS5003;68073;54.176;-4.554;2023-04-08T07:29:04;31;29;
78754;PMS5003;68073;54.176;-4.554;2023-04-08T07:31:29;34;30;
78754;PMS5003;68073;54.176;-4.554;2023-04-08T07:33:55;41;36;
78754;PMS5003;68073;54.176;-4.554;2023-04-08T07:36:20;36;34;
78754;PMS5003;68073;54.176;-4.554;2023-04-08T07:38:46;31;28;
78754;PMS5003;68073;54.176;-4.554;2023-04-08T07:41:11;35;34;
78754;PMS5003;68073;54.176;-4.554;2023-04-08T07:43:36;35;32;
78754;PMS5003;68073;54.176;-4.554;2023-04-08T07:46:02;39;35;
78754;PMS5003;68073;54.176;-4.554;2023-04-08T07:48:27;32;28;
78754;PMS5003;68073;54.176;-4.554;2023-04-08T07:50:53;33;32;
78754;PMS5003;68073;54.176;-4.554;2023-04-08T07:53:18;30;29;
78754;PMS5003;68073;54.176;-4.554;2023-04-08T07:55:43;35;33;
78754;PMS5003;68073;54.176;-4.554;2023-04-08T07:58:09;34;33;
78754;PMS5003;68073;54.176;-4.554;2023-04-08T08:00:35;37;34;
78754;PMS5003;68073;54.176;-4.554;2023-04-08T08:03:00;38;36;
78754;PMS5003;68073;54.176;-4.554;2023-04-08T08:05:26;39;38;
78754;PMS5003;68073;54.176;-4.554;2023-04-08T08:07:51;39;36;
78754;PMS5003;68073;54.176;-4.554;2023-04-08T08:10:17;39;37;
78754;PMS5003;68073;54.176;-4.554;2023-04-08T08:12:43;31;31;
78754;PMS5003;68073;54.176;-4.554;2023-04-08T08:15:08;42;40;
78754;PMS5003;68073;54.176;-4.554;2023-04-08T08:17:33;36;33;
78754;PMS5003;68073;54.176;-4.554;2023-04-08T08:19:59;45;44;
78754;PMS5003;68073;54.176;-4.554;2023-04-08T08:22:24;39;37;
78754;PMS5003;68073;54.176;-4.554;2023-04-08T08:24:54;42;40;
78754;PMS5003;68073;54.176;-4.554;2023-04-08T08:27:15;43;42;
78754;PMS5003;68073;54.176;-4.554;2023-04-08T08:29:41;36;33;
78754;PMS5003;68073;54.176;-4.554;2023-04-08T08:32:06;40;39;
78754;PMS5003;68073;54.176;-4.554;2023-04-08T08:34:32;36;35;
78754;PMS5003;68073;54.176;-4.554;2023-04-08T08:36:57;40;36;
78754;PMS5003;68073;54.176;-4.554;2023-04-08T08:39:23;38;36;
78754;PMS5003;68073;54.176;-4.554;2023-04-08T08:41:48;37;35;
78754;PMS5003;68073;54.176;-4.554;2023-04-08T08:44:14;40;39;
78754;PMS5003;68073;54.176;-4.554;2023-04-08T08:46:40;42;39;
78754;PMS5003;68073;54.176;-4.554;2023-04-08T08:49:04;39;35;
78754;PMS5003;68073;54.176;-4.554;2023-04-08T08:51:30;39;33;
78754;PMS5003;68073;54.176;-4.554;2023-04-08T08:53:55;38;35;
78754;PMS5003;68073;54.176;-4.554;2023-04-08T08:56:21;31;29;
78754;PMS5003;68073;54.176;-4.554;2023-04-08T08:58:46;31;29;
78754;PMS5003;68073;54.176;-4.554;2023-04-08T09:03:38;40;36;
78754;PMS5003;68073;54.176;-4.554;2023-04-08T09:06:03;34;31;
78754;PMS5003;68073;54.176;-4.554;2023-04-08T09:08:29;38;34;
78754;PMS5003;68073;54.176;-4.554;2023-04-08T09:10:54;42;41;
78754;PMS5003;68073;54.176;-4.554;2023-04-08T09:13:19;34;34;
78754;PMS5003;68073;54.176;-4.554;2023-04-08T09:20:35;70;66;
78754;PMS5003;68073;54.176;-4.554;2023-04-08T09:23:01;35;33;
78754;PMS5003;68073;54.176;-4.554;2023-04-08T09:25:26;61;59;
78754;PMS5003;68073;54.176;-4.554;2023-04-08T09:27:51;32;31;
78754;PMS5003;68073;54.176;-4.554;2023-04-08T09:30:16;38;37;
78754;PMS5003;68073;54.176;-4.554;2023-04-08T09:32:46;39;34;
78754;PMS5003;68073;54.176;-4.554;2023-04-08T09:35:07;48;47;
78754;PMS5003;68073;54.176;-4.554;2023-04-08T09:37:32;33;31;
78754;PMS5003;68073;54.176;-4.554;2023-04-08T09:39:58;35;34;
78754;PMS5003;68073;54.176;-4.554;2023-04-08T09:42:23;34;33;
78754;PMS5003;68073;54.176;-4.554;2023-04-08T09:44:48;37;36;
78754;PMS5003;68073;54.176;-4.554;2023-04-08T09:47:17;39;33;
78754;PMS5003;68073;54.176;-4.554;2023-04-08T09:49:41;41;36;
78754;PMS5003;68073;54.176;-4.554;2023-04-08T09:52:06;34;33;
78754;PMS5003;68073;54.176;-4.554;2023-04-08T09:54:31;43;40;
78754;PMS5003;68073;54.176;-4.554;2023-04-08T09:56:57;49;48;
78754;PMS5003;68073;54.176;-4.554;2023-04-08T09:59:21;37;35;
78754;PMS5003;68073;54.176;-4.554;2023-04-08T10:01:49;36;35;
78754;PMS5003;68073;54.176;-4.554;2023-04-08T10:04:13;35;31;
78754;PMS5003;68073;54.176;-4.554;2023-04-08T10:06:37;40;37;
78754;PMS5003;68073;54.176;-4.554;2023-04-08T10:09:02;42;38;
78754;PMS5003;68073;54.176;-4.554;2023-04-08T10:11:28;41;39;
78754;PMS5003;68073;54.176;-4.554;2023-04-08T10:13:54;38;34;
78754;PMS5003;68073;54.176;-4.554;2023-04-08T10:16:20;31;29;
78754;PMS5003;68073;54.176;-4.554;2023-04-08T10:18:44;36;34;
78754;PMS5003;68073;54.176;-4.554;2023-04-08T10:26:00;36;34;
78754;PMS5003;68073;54.176;-4.554;2023-04-08T10:28:26;35;31;
78754;PMS5003;68073;54.176;-4.554;2023-04-08T10:30:52;37;36;
78754;PMS5003;68073;54.176;-4.554;2023-04-08T10:33:18;40;36;
78754;PMS5003;68073;54.176;-4.554;2023-04-08T10:35:46;35;33;
78754;PMS5003;68073;54.176;-4.554;2023-04-08T10:38:08;41;40;
78754;PMS5003;68073;54.176;-4.554;2023-04-08T10:40:35;33;33;
78754;PMS5003;68073;54.176;-4.554;2023-04-08T10:43:00;36;35;
78754;PMS5003;68073;54.176;-4.554;2023-04-08T10:45:26;40;38;
78754;PMS5003;68073;54.176;-4.554;2023-04-08T10:47:51;34;32;
78754;PMS5003;68073;54.176;-4.554;2023-04-08T10:50:17;37;35;
78754;PMS5003;68073;54.176;-4.554;2023-04-08T10:52:45;31;30;
78754;PMS5003;68073;54.176;-4.554;2023-04-08T10:55:07;36;34;
78754;PMS5003;68073;54.176;-4.554;2023-04-08T10:57:33;35;34;
78754;PMS5003;68073;54.176;-4.554;2023-04-08T10:59:58;38;37;
78754;PMS5003;68073;54.176;-4.554;2023-04-08T11:04:49;32;31;
78754;PMS5003;68073;54.176;-4.554;2023-04-08T11:07:14;35;34;
78754;PMS5003;68073;54.176;-4.554;2023-04-08T11:09:40;35;32;
78754;PMS5003;68073;54.176;-4.554;2023-04-08T11:12:06;35;32;
78754;PMS5003;68073;54.176;-4.554;2023-04-08T11:14:31;39;35;
78754;PMS5003;68073;54.176;-4.554;2023-04-08T11:16:57;39;35;
78754;PMS5003;68073;54.176;-4.554;2023-04-08T11:19:22;41;39;
78754;PMS5003;68073;54.176;-4.554;2023-04-08T11:21:49;32;31;
78754;PMS5003;68073;54.176;-4.554;2023-04-08T11:24:14;44;42;
78754;PMS5003;68073;54.176;-4.554;2023-04-08T11:26:39;37;36;
78754;PMS5003;68073;54.176;-4.554;2023-04-08T11:29:04;35;33;
78754;PMS5003;68073;54.176;-4.554;2023-04-08T11:31:30;33;32;
78754;PMS5003;68073;54.176;-4.554;2023-04-08T11:33:55;41;38;
78754;PMS5003;68073;54.176;-4.554;2023-04-08T11:36:21;39;37;
78754;PMS5003;68073;54.176;-4.554;2023-04-08T11:38:47;38;38;
78754;PMS5003;68073;54.176;-4.554;2023-04-08T11:41:12;39;37;
78754;PMS5003;68073;54.176;-4.554;2023-04-08T11:43:37;43;36;
78754;PMS5003;68073;54.176;-4.554;2023-04-08T11:46:07;45;43;
78754;PMS5003;68073;54.176;-4.554;2023-04-08T11:48:28;36;36;
78754;PMS5003;68073;54.176;-4.554;2023-04-08T11:53:19;36;34;
78754;PMS5003;68073;54.176;-4.554;2023-04-08T11:55:45;103;102;
78754;PMS5003;68073;54.176;-4.554;2023-04-08T11:58:10;40;38;
78754;PMS5003;68073;54.176;-4.554;2023-04-08T12:00:35;43;39;
78754;PMS5003;68073;54.176;-4.554;2023-04-08T12:03:01;32;32;
78754;PMS5003;68073;54.176;-4.554;2023-04-08T12:05:26;35;34;
78754;PMS5003;68073;54.176;-4.554;2023-04-08T12:07:52;35;33;
78754;PMS5003;68073;54.176;-4.554;2023-04-08T12:10:17;40;38;
78754;PMS5003;68073;54.176;-4.554;2023-04-08T12:12:43;41;40;
78754;PMS5003;68073;54.176;-4.554;2023-04-08T12:15:09;39;38;
78754;PMS5003;68073;54.176;-4.554;2023-04-08T12:17:34;35;32;
78754;PMS5003;68073;54.176;-4.554;2023-04-08T12:19:59;49;44;
78754;PMS5003;68073;54.176;-4.554;2023-04-08T12:22:25;42;39;
78754;PMS5003;68073;54.176;-4.554;2023-04-08T12:24:50;38;37;
78754;PMS5003;68073;54.176;-4.554;2023-04-08T12:27:16;37;35;
78754;PMS5003;68073;54.176;-4.554;2023-04-08T12:29:41;36;35;
78754;PMS5003;68073;54.176;-4.554;2023-04-08T12:32:06;71;66;
78754;PMS5003;68073;54.176;-4.554;2023-04-08T12:34:32;39;36;
78754;PMS5003;68073;54.176;-4.554;2023-04-08T12:36:58;40;38;
78754;PMS5003;68073;54.176;-4.554;2023-04-08T12:39:24;42;41;
78754;PMS5003;68073;54.176;-4.554;2023-04-08T12:41:49;42;41;
78754;PMS5003;68073;54.176;-4.554;2023-04-08T12:44:14;44;40;
78754;PMS5003;68073;54.176;-4.554;2023-04-08T12:46:39;40;39;
78754;PMS5003;68073;54.176;-4.554;2023-04-08T12:49:05;32;32;
78754;PMS5003;68073;54.176;-4.554;2023-04-08T12:51:30;40;39;
78754;PMS5003;68073;54.176;-4.554;2023-04-08T12:53:55;39;38;
78754;PMS5003;68073;54.176;-4.554;2023-04-08T12:56:21;33;32;
78754;PMS5003;68073;54.176;-4.554;2023-04-08T12:58:46;32;30;
78754;PMS5003;68073;54.176;-4.554;2023-04-08T13:01:12;33;31;
78754;PMS5003;68073;54.176;-4.554;2023-04-08T13:03:37;35;32;
78754;PMS5003;68073;54.176;-4.554;2023-04-08T13:06:02;35;31;
78754;PMS5003;68073;54.176;-4.554;2023-04-08T13:08:28;33;32;
78754;PMS5003;68073;54.176;-4.554;2023-04-08T13:10:53;29;28;
78754;PMS5003;68073;54.176;-4.554;2023-04-08T13:13:19;48;45;
78754;PMS5003;68073;54.176;-4.554;2023-04-08T13:15:44;34;32;
78754;PMS5003;68073;54.176;-4.554;2023-04-08T13:18:10;101;94;
78754;PMS5003;68073;54.176;-4.554;2023-04-08T13:20:35;25;25;
78754;PMS5003;68073;54.176;-4.554;2023-04-08T13:23:00;31;30;
78754;PMS5003;68073;54.176;-4.554;2023-04-08T13:25:26;26;25;
78754;PMS5003;68073;54.176;-4.554;2023-04-08T13:27:51;25;24;
78754;PMS5003;68073;54.176;-4.554;2023-04-08T13:30:16;31;29;
78754;PMS5003;68073;54.176;-4.554;2023-04-08T13:32:42;31;30;
78754;PMS5003;68073;54.176;-4.554;2023-04-08T13:35:08;28;26;
78754;PMS5003;68073;54.176;-4.554;2023-04-08T13:37:33;40;38;
78754;PMS5003;68073;54.176;-4.554;2023-04-08T13:39:59;33;32;
78754;PMS5003;68073;54.176;-4.554;2023-04-08T13:42:24;35;32;
78754;PMS5003;68073;54.176;-4.554;2023-04-08T13:44:50;30;28;
78754;PMS5003;68073;54.176;-4.554;2023-04-08T13:47:15;35;35;
78754;PMS5003;68073;54.176;-4.554;2023-04-08T13:49:40;37;36;
78754;PMS5003;68073;54.176;-4.554;2023-04-08T13:52:06;49;48;
78754;PMS5003;68073;54.176;-4.554;2023-04-08T13:54:31;35;33;
78754;PMS5003;68073;54.176;-4.554;2023-04-08T13:56:57;39;35;
78754;PMS5003;68073;54.176;-4.554;2023-04-08T13:59:22;33;30;
78754;PMS5003;68073;54.176;-4.554;2023-04-08T14:01:47;30;28;
78754;PMS5003;68073;54.176;-4.554;2023-04-08T14:04:13;29;28;
78754;PMS5003;68073;54.176;-4.554;2023-04-08T14:06:38;30;30;
78754;PMS5003;68073;54.176;-4.554;2023-04-08T14:09:03;40;39;
78754;PMS5003;68073;54.176;-4.554;2023-04-08T14:11:28;35;35;
78754;PMS5003;68073;54.176;-4.554;2023-04-08T14:13:54;37;33;
78754;PMS5003;68073;54.176;-4.554;2023-04-08T14:16:20;38;36;
78754;PMS5003;68073;54.176;-4.554;2023-04-08T14:18:45;32;30;
78754;PMS5003;68073;54.176;-4.554;2023-04-08T14:21:11;36;36;
78754;PMS5003;68073;54.176;-4.554;2023-04-08T14:23:36;37;35;
78754;PMS5003;68073;54.176;-4.554;2023-04-08T14:26:02;30;29;
78754;PMS5003;68073;54.176;-4.554;2023-04-08T14:28:28;46;43;
78754;PMS5003;68073;54.176;-4.554;2023-04-08T14:30:53;42;40;
78754;PMS5003;68073;54.176;-4.554;2023-04-08T14:33:19;74;70;
78754;PMS5003;68073;54.176;-4.554;2023-04-08T14:35:44;310;274;
78754;PMS5003;68073;54.176;-4.554;2023-04-08T14:38:09;236;205;
78754;PMS5003;68073;54.176;-4.554;2023-04-08T14:40:35;191;174;
78754;PMS5003;68073;54.176;-4.554;2023-04-08T14:43:00;274;237;
78754;PMS5003;68073;54.176;-4.554;2023-04-08T14:47:52;100;93;
78754;PMS5003;68073;54.176;-4.554;2023-04-08T14:50:17;388;339;
78754;PMS5003;68073;54.176;-4.554;2023-04-08T14:52:42;319;287;
78754;PMS5003;68073;54.176;-4.554;2023-04-08T14:55:08;315;279;
78754;PMS5003;68073;54.176;-4.554;2023-04-08T14:57:33;109;106;
78754;PMS5003;68073;54.176;-4.554;2023-04-08T14:59:58;355;307;
78754;PMS5003;68073;54.176;-4.554;2023-04-08T15:02:24;125;119;
78754;PMS5003;68073;54.176;-4.554;2023-04-08T15:04:50;174;159;
78754;PMS5003;68073;54.176;-4.554;2023-04-08T15:07:15;265;241;
78754;PMS5003;68073;54.176;-4.554;2023-04-08T15:09:41;313;276;
78754;PMS5003;68073;54.176;-4.554;2023-04-08T15:12:06;247;219;
78754;PMS5003;68073;54.176;-4.554;2023-04-08T15:14:32;56;50;
78754;PMS5003;68073;54.176;-4.554;2023-04-08T15:16:57;279;244;
78754;PMS5003;68073;54.176;-4.554;2023-04-08T15:19:23;193;182;
78754;PMS5003;68073;54.176;-4.554;2023-04-08T15:21:49;40;39;
78754;PMS5003;68073;54.176;-4.554;2023-04-08T15:24:14;44;42;
78754;PMS5003;68073;54.176;-4.554;2023-04-08T15:26:39;55;49;
78754;PMS5003;68073;54.176;-4.554;2023-04-08T15:29:04;62;55;
78754;PMS5003;68073;54.176;-4.554;2023-04-08T15:31:30;47;47;
78754;PMS5003;68073;54.176;-4.554;2023-04-08T15:33:55;80;75;
78754;PMS5003;68073;54.176;-4.554;2023-04-08T15:36:21;35;34;
78754;PMS5003;68073;54.176;-4.554;2023-04-08T15:38:46;23;22;
78754;PMS5003;68073;54.176;-4.554;2023-04-08T15:41:16;41;38;
78754;PMS5003;68073;54.176;-4.554;2023-04-08T15:43:37;26;25;
78754;PMS5003;68073;54.176;-4.554;2023-04-08T15:46:02;32;31;
78754;PMS5003;68073;54.176;-4.554;2023-04-08T15:48:27;27;26;
78754;PMS5003;68073;54.176;-4.554;2023-04-08T15:50:53;34;32;
78754;PMS5003;68073;54.176;-4.554;2023-04-08T15:53:18;41;36;
78754;PMS5003;68073;54.176;-4.554;2023-04-08T15:55:43;36;34;
78754;PMS5003;68073;54.176;-4.554;2023-04-08T15:58:08;40;38;
78754;PMS5003;68073;54.176;-4.554;2023-04-08T16:00:34;53;49;
78754;PMS5003;68073;54.176;-4.554;2023-04-08T16:03:00;26;25;
78754;PMS5003;68073;54.176;-4.554;2023-04-08T16:05:25;24;23;
78754;PMS5003;68073;54.176;-4.554;2023-04-08T16:07:51;21;21;
78754;PMS5003;68073;54.176;-4.554;2023-04-08T16:10:16;19;19;
78754;PMS5003;68073;54.176;-4.554;2023-04-08T16:12:42;19;17;
78754;PMS5003;68073;54.176;-4.554;2023-04-08T16:15:07;20;20;